sensor_id;sensor_type;location;lat;lon;timestamp;temperature;humidity
48264;DHT22;34086;51.076;13.722;2023-04-04T00:00:36;3.00;99.90
48264;DHT22;34086;51.076;13.722;2023-04-04T00:01:37;3.00;99.90
48264;DHT22;34086;51.076;13.722;2023-04-04T00:02:38;3.00;99.90
48264;DHT22;34086;51.076;13.722;2023-04-04T00:03:39;3.00;99.90
48264;DHT22;34086;51.076;13.722;2023-04-04T00:04:39;3.00;99.90
48264;DHT22;34086;51.076;13.722;2023-04-04T00:05:40;3.00;99.90
48264;DHT22;34086;51.076;13.722;2023-04-04T00:06:40;3.00;99.90
48264;DHT22;34086;51.076;13.722;2023-04-04T00:07:45;3.00;99.90
48264;DHT22;34086;51.076;13.722;2023-04-04T00:08:46;3.00;99.90
48264;DHT22;34086;51.076;13.722;2023-04-04T00:09:47;3.00;99.90
48264;DHT22;34086;51.076;13.722;2023-04-04T00:10:47;3.00;99.90
48264;DHT22;34086;51.076;13.722;2023-04-04T00:11:48;3.00;99.90
48264;DHT22;34086;51.076;13.722;2023-04-04T00:12:49;3.00;99.90
48264;DHT22;34086;51.076;13.722;2023-04-04T00:13:50;3.00;99.90
48264;DHT22;34086;51.076;13.722;2023-04-04T00:14:51;3.00;99.90
48264;DHT22;34086;51.076;13.722;2023-04-04T00:15:52;3.00;99.90
48264;DHT22;34086;51.076;13.722;2023-04-04T00:16:53;3.00;99.90
48264;DHT22;34086;51.076;13.722;2023-04-04T00:17:53;3.10;99.90
48264;DHT22;34086;51.076;13.722;2023-04-04T00:18:54;3.10;99.90
48264;DHT22;34086;51.076;13.722;2023-04-04T00:19:54;3.10;99.90
48264;DHT22;34086;51.076;13.722;2023-04-04T00:20:56;3.00;99.90
48264;DHT22;34086;51.076;13.722;2023-04-04T00:21:57;3.00;99.90
48264;DHT22;34086;51.076;13.722;2023-04-04T00:22:57;3.00;99.90
48264;DHT22;34086;51.076;13.722;2023-04-04T00:23:58;3.00;99.90
48264;DHT22;34086;51.076;13.722;2023-04-04T00:24:59;3.00;99.90
48264;DHT22;34086;51.076;13.722;2023-04-04T00:26:00;3.00;99.90
48264;DHT22;34086;51.076;13.722;2023-04-04T00:27:01;3.00;99.90
48264;DHT22;34086;51.076;13.722;2023-04-04T00:28:02;3.00;99.90
48264;DHT22;34086;51.076;13.722;2023-04-04T00:29:03;3.00;99.90
48264;DHT22;34086;51.076;13.722;2023-04-04T00:30:04;3.00;99.90
48264;DHT22;34086;51.076;13.722;2023-04-04T00:31:05;2.90;99.90
48264;DHT22;34086;51.076;13.722;2023-04-04T00:32:05;2.90;99.90
48264;DHT22;34086;51.076;13.722;2023-04-04T00:33:06;2.90;99.90
48264;DHT22;34086;51.076;13.722;2023-04-04T00:34:07;2.90;99.90
48264;DHT22;34086;51.076;13.722;2023-04-04T00:35:08;2.90;99.90
48264;DHT22;34086;51.076;13.722;2023-04-04T00:36:08;2.90;99.90
48264;DHT22;34086;51.076;13.722;2023-04-04T00:37:09;2.90;99.90
48264;DHT22;34086;51.076;13.722;2023-04-04T00:38:12;2.90;99.90
48264;DHT22;34086;51.076;13.722;2023-04-04T00:39:13;2.90;99.90
48264;DHT22;34086;51.076;13.722;2023-04-04T00:40:13;2.90;99.90
48264;DHT22;34086;51.076;13.722;2023-04-04T00:41:15;2.90;99.90
48264;DHT22;34086;51.076;13.722;2023-04-04T00:42:16;2.90;99.90
48264;DHT22;34086;51.076;13.722;2023-04-04T00:43:17;2.90;99.90
48264;DHT22;34086;51.076;13.722;2023-04-04T00:44:18;2.80;99.90
48264;DHT22;34086;51.076;13.722;2023-04-04T00:45:19;2.90;99.90
48264;DHT22;34086;51.076;13.722;2023-04-04T00:46:19;2.80;99.90
48264;DHT22;34086;51.076;13.722;2023-04-04T00:47:24;2.90;99.90
48264;DHT22;34086;51.076;13.722;2023-04-04T00:48:29;2.90;99.90
48264;DHT22;34086;51.076;13.722;2023-04-04T00:49:29;2.90;99.90
48264;DHT22;34086;51.076;13.722;2023-04-04T00:50:30;2.90;99.90
48264;DHT22;34086;51.076;13.722;2023-04-04T00:51:31;2.80;99.90
48264;DHT22;34086;51.076;13.722;2023-04-04T00:52:32;2.90;99.90
48264;DHT22;34086;51.076;13.722;2023-04-04T00:53:33;2.80;99.90
48264;DHT22;34086;51.076;13.722;2023-04-04T00:54:34;2.80;99.90
48264;DHT22;34086;51.076;13.722;2023-04-04T00:55:38;2.80;99.90
48264;DHT22;34086;51.076;13.722;2023-04-04T00:56:39;2.80;99.90
48264;DHT22;34086;51.076;13.722;2023-04-04T00:57:40;2.80;99.90
48264;DHT22;34086;51.076;13.722;2023-04-04T00:58:41;2.80;99.90
48264;DHT22;34086;51.076;13.722;2023-04-04T00:59:42;2.80;99.90
48264;DHT22;34086;51.076;13.722;2023-04-04T01:00:43;2.80;99.90
48264;DHT22;34086;51.076;13.722;2023-04-04T01:01:44;2.80;99.90
48264;DHT22;34086;51.076;13.722;2023-04-04T01:02:45;2.80;99.90
48264;DHT22;34086;51.076;13.722;2023-04-04T01:03:46;2.70;99.90
48264;DHT22;34086;51.076;13.722;2023-04-04T01:04:47;2.80;99.90
48264;DHT22;34086;51.076;13.722;2023-04-04T01:05:48;2.70;99.90
48264;DHT22;34086;51.076;13.722;2023-04-04T01:06:49;2.70;99.90
48264;DHT22;34086;51.076;13.722;2023-04-04T01:07:50;2.70;99.90
48264;DHT22;34086;51.076;13.722;2023-04-04T01:08:52;2.70;99.90
48264;DHT22;34086;51.076;13.722;2023-04-04T01:09:55;2.80;99.90
48264;DHT22;34086;51.076;13.722;2023-04-04T01:10:56;2.70;99.90
48264;DHT22;34086;51.076;13.722;2023-04-04T01:11:58;2.80;99.90
48264;DHT22;34086;51.076;13.722;2023-04-04T01:13:00;2.70;99.90
48264;DHT22;34086;51.076;13.722;2023-04-04T01:14:01;2.70;99.90
48264;DHT22;34086;51.076;13.722;2023-04-04T01:15:01;2.80;99.90
48264;DHT22;34086;51.076;13.722;2023-04-04T01:16:02;2.70;99.90
48264;DHT22;34086;51.076;13.722;2023-04-04T01:17:03;2.70;99.90
48264;DHT22;34086;51.076;13.722;2023-04-04T01:18:05;2.70;99.90
48264;DHT22;34086;51.076;13.722;2023-04-04T01:19:08;2.60;99.90
48264;DHT22;34086;51.076;13.722;2023-04-04T01:20:19;2.60;99.90
48264;DHT22;34086;51.076;13.722;2023-04-04T01:21:26;2.60;99.90
48264;DHT22;34086;51.076;13.722;2023-04-04T01:22:29;2.60;99.90
48264;DHT22;34086;51.076;13.722;2023-04-04T01:23:52;2.60;99.90
48264;DHT22;34086;51.076;13.722;2023-04-04T01:24:59;2.70;99.90
48264;DHT22;34086;51.076;13.722;2023-04-04T01:26:03;2.60;99.90
48264;DHT22;34086;51.076;13.722;2023-04-04T01:27:05;2.70;99.90
48264;DHT22;34086;51.076;13.722;2023-04-04T01:28:08;2.60;99.90
48264;DHT22;34086;51.076;13.722;2023-04-04T01:29:09;2.60;99.90
48264;DHT22;34086;51.076;13.722;2023-04-04T01:30:11;2.60;99.90
48264;DHT22;34086;51.076;13.722;2023-04-04T01:31:13;2.60;99.90
48264;DHT22;34086;51.076;13.722;2023-04-04T01:32:19;2.60;99.90
48264;DHT22;34086;51.076;13.722;2023-04-04T01:33:26;2.60;99.90
48264;DHT22;34086;51.076;13.722;2023-04-04T01:34:41;2.60;99.90
48264;DHT22;34086;51.076;13.722;2023-04-04T01:36:09;2.60;99.90
48264;DHT22;34086;51.076;13.722;2023-04-04T01:37:17;2.60;99.90
48264;DHT22;34086;51.076;13.722;2023-04-04T01:38:29;2.60;99.90
48264;DHT22;34086;51.076;13.722;2023-04-04T01:39:49;2.60;99.90
48264;DHT22;34086;51.076;13.722;2023-04-04T01:40:57;2.60;99.90
48264;DHT22;34086;51.076;13.722;2023-04-04T01:42:00;2.60;99.90
48264;DHT22;34086;51.076;13.722;2023-04-04T01:43:03;2.50;99.90
48264;DHT22;34086;51.076;13.722;2023-04-04T01:44:08;2.60;99.90
48264;DHT22;34086;51.076;13.722;2023-04-04T01:45:09;2.50;99.90
48264;DHT22;34086;51.076;13.722;2023-04-04T01:46:10;2.50;99.90
48264;DHT22;34086;51.076;13.722;2023-04-04T01:47:12;2.50;99.90
48264;DHT22;34086;51.076;13.722;2023-04-04T01:48:13;2.50;99.90
48264;DHT22;34086;51.076;13.722;2023-04-04T01:49:16;2.50;99.90
48264;DHT22;34086;51.076;13.722;2023-04-04T01:50:18;2.50;99.90
48264;DHT22;34086;51.076;13.722;2023-04-04T01:51:18;2.50;99.90
48264;DHT22;34086;51.076;13.722;2023-04-04T01:52:20;2.50;99.90
48264;DHT22;34086;51.076;13.722;2023-04-04T01:53:21;2.50;99.90
48264;DHT22;34086;51.076;13.722;2023-04-04T01:54:22;2.40;99.90
48264;DHT22;34086;51.076;13.722;2023-04-04T01:55:23;2.50;99.90
48264;DHT22;34086;51.076;13.722;2023-04-04T01:56:23;2.40;99.90
48264;DHT22;34086;51.076;13.722;2023-04-04T01:57:24;2.40;99.90
48264;DHT22;34086;51.076;13.722;2023-04-04T01:58:25;2.40;99.90
48264;DHT22;34086;51.076;13.722;2023-04-04T01:59:26;2.40;99.90
48264;DHT22;34086;51.076;13.722;2023-04-04T02:00:26;2.40;99.90
48264;DHT22;34086;51.076;13.722;2023-04-04T02:01:27;2.40;99.90
48264;DHT22;34086;51.076;13.722;2023-04-04T02:02:28;2.40;99.90
48264;DHT22;34086;51.076;13.722;2023-04-04T02:03:29;2.40;99.90
48264;DHT22;34086;51.076;13.722;2023-04-04T02:04:30;2.40;99.90
48264;DHT22;34086;51.076;13.722;2023-04-04T02:05:30;2.40;99.90
48264;DHT22;34086;51.076;13.722;2023-04-04T02:06:31;2.50;99.90
48264;DHT22;34086;51.076;13.722;2023-04-04T02:07:32;2.40;99.90
48264;DHT22;34086;51.076;13.722;2023-04-04T02:08:32;2.40;99.90
48264;DHT22;34086;51.076;13.722;2023-04-04T02:09:33;2.40;99.90
48264;DHT22;34086;51.076;13.722;2023-04-04T02:10:34;2.40;99.90
48264;DHT22;34086;51.076;13.722;2023-04-04T02:11:34;2.40;99.90
48264;DHT22;34086;51.076;13.722;2023-04-04T02:12:35;2.40;99.90
48264;DHT22;34086;51.076;13.722;2023-04-04T02:13:36;2.40;99.90
48264;DHT22;34086;51.076;13.722;2023-04-04T02:14:41;2.40;99.90
48264;DHT22;34086;51.076;13.722;2023-04-04T02:15:42;2.40;99.90
48264;DHT22;34086;51.076;13.722;2023-04-04T02:16:42;2.40;99.90
48264;DHT22;34086;51.076;13.722;2023-04-04T02:17:46;2.40;99.90
48264;DHT22;34086;51.076;13.722;2023-04-04T02:18:47;2.30;99.90
48264;DHT22;34086;51.076;13.722;2023-04-04T02:19:48;2.30;99.90
48264;DHT22;34086;51.076;13.722;2023-04-04T02:20:54;2.30;99.90
48264;DHT22;34086;51.076;13.722;2023-04-04T02:21:56;2.30;99.90
48264;DHT22;34086;51.076;13.722;2023-04-04T02:22:57;2.30;99.90
48264;DHT22;34086;51.076;13.722;2023-04-04T02:23:58;2.30;99.90
48264;DHT22;34086;51.076;13.722;2023-04-04T02:24:58;2.30;99.90
48264;DHT22;34086;51.076;13.722;2023-04-04T02:26:02;2.20;99.90
48264;DHT22;34086;51.076;13.722;2023-04-04T02:27:02;2.20;99.90
48264;DHT22;34086;51.076;13.722;2023-04-04T02:28:03;2.20;99.90
48264;DHT22;34086;51.076;13.722;2023-04-04T02:29:04;2.20;99.90
48264;DHT22;34086;51.076;13.722;2023-04-04T02:30:06;2.20;99.90
48264;DHT22;34086;51.076;13.722;2023-04-04T02:31:10;2.20;99.90
48264;DHT22;34086;51.076;13.722;2023-04-04T02:32:10;2.10;99.90
48264;DHT22;34086;51.076;13.722;2023-04-04T02:33:11;2.10;99.90
48264;DHT22;34086;51.076;13.722;2023-04-04T02:34:12;2.00;99.90
48264;DHT22;34086;51.076;13.722;2023-04-04T02:35:13;2.00;99.90
48264;DHT22;34086;51.076;13.722;2023-04-04T02:36:16;2.00;99.90
48264;DHT22;34086;51.076;13.722;2023-04-04T02:37:17;1.90;99.90
48264;DHT22;34086;51.076;13.722;2023-04-04T02:38:18;1.90;99.90
48264;DHT22;34086;51.076;13.722;2023-04-04T02:39:20;1.90;99.90
48264;DHT22;34086;51.076;13.722;2023-04-04T02:40:22;1.80;99.90
48264;DHT22;34086;51.076;13.722;2023-04-04T02:41:23;1.80;99.90
48264;DHT22;34086;51.076;13.722;2023-04-04T02:42:24;1.80;99.90
48264;DHT22;34086;51.076;13.722;2023-04-04T02:43:25;1.80;99.90
48264;DHT22;34086;51.076;13.722;2023-04-04T02:44:26;1.70;99.90
48264;DHT22;34086;51.076;13.722;2023-04-04T02:45:28;1.70;99.90
48264;DHT22;34086;51.076;13.722;2023-04-04T02:46:36;1.70;99.90
48264;DHT22;34086;51.076;13.722;2023-04-04T02:47:41;1.70;99.90
48264;DHT22;34086;51.076;13.722;2023-04-04T02:48:43;1.70;99.90
48264;DHT22;34086;51.076;13.722;2023-04-04T02:49:44;1.60;99.90
48264;DHT22;34086;51.076;13.722;2023-04-04T02:50:45;1.60;99.90
48264;DHT22;34086;51.076;13.722;2023-04-04T02:51:48;1.60;99.90
48264;DHT22;34086;51.076;13.722;2023-04-04T02:52:48;1.60;99.90
48264;DHT22;34086;51.076;13.722;2023-04-04T02:53:49;1.60;99.90
48264;DHT22;34086;51.076;13.722;2023-04-04T02:54:56;1.60;99.90
48264;DHT22;34086;51.076;13.722;2023-04-04T02:56:06;1.60;99.90
48264;DHT22;34086;51.076;13.722;2023-04-04T02:57:07;1.60;99.90
48264;DHT22;34086;51.076;13.722;2023-04-04T02:58:08;1.50;99.90
48264;DHT22;34086;51.076;13.722;2023-04-04T02:59:08;1.50;99.90
48264;DHT22;34086;51.076;13.722;2023-04-04T03:00:09;1.50;99.90
48264;DHT22;34086;51.076;13.722;2023-04-04T03:01:10;1.50;99.90
48264;DHT22;34086;51.076;13.722;2023-04-04T03:02:12;1.50;99.90
48264;DHT22;34086;51.076;13.722;2023-04-04T03:03:13;1.50;99.90
48264;DHT22;34086;51.076;13.722;2023-04-04T03:04:17;1.50;99.90
48264;DHT22;34086;51.076;13.722;2023-04-04T03:05:23;1.50;99.90
48264;DHT22;34086;51.076;13.722;2023-04-04T03:06:24;1.50;99.90
48264;DHT22;34086;51.076;13.722;2023-04-04T03:07:25;1.50;99.90
48264;DHT22;34086;51.076;13.722;2023-04-04T03:08:27;1.50;99.90
48264;DHT22;34086;51.076;13.722;2023-04-04T03:09:31;1.50;99.90
48264;DHT22;34086;51.076;13.722;2023-04-04T03:10:32;1.50;99.90
48264;DHT22;34086;51.076;13.722;2023-04-04T03:11:32;1.50;99.90
48264;DHT22;34086;51.076;13.722;2023-04-04T03:12:33;1.50;99.90
48264;DHT22;34086;51.076;13.722;2023-04-04T03:13:33;1.50;99.90
48264;DHT22;34086;51.076;13.722;2023-04-04T03:14:34;1.60;99.90
48264;DHT22;34086;51.076;13.722;2023-04-04T03:15:35;1.60;99.90
48264;DHT22;34086;51.076;13.722;2023-04-04T03:16:36;1.60;99.90
48264;DHT22;34086;51.076;13.722;2023-04-04T03:17:37;1.60;99.90
48264;DHT22;34086;51.076;13.722;2023-04-04T03:18:37;1.60;99.90
48264;DHT22;34086;51.076;13.722;2023-04-04T03:19:39;1.60;99.90
48264;DHT22;34086;51.076;13.722;2023-04-04T03:20:39;1.70;99.90
48264;DHT22;34086;51.076;13.722;2023-04-04T03:21:40;1.70;99.90
48264;DHT22;34086;51.076;13.722;2023-04-04T03:22:41;1.70;99.90
48264;DHT22;34086;51.076;13.722;2023-04-04T03:23:42;1.70;99.90
48264;DHT22;34086;51.076;13.722;2023-04-04T03:24:42;1.80;99.90
48264;DHT22;34086;51.076;13.722;2023-04-04T03:25:43;1.70;99.90
48264;DHT22;34086;51.076;13.722;2023-04-04T03:26:43;1.70;99.90
48264;DHT22;34086;51.076;13.722;2023-04-04T03:27:46;1.80;99.90
48264;DHT22;34086;51.076;13.722;2023-04-04T03:28:53;1.70;99.90
48264;DHT22;34086;51.076;13.722;2023-04-04T03:29:56;1.70;99.90
48264;DHT22;34086;51.076;13.722;2023-04-04T03:31:04;1.70;99.90
48264;DHT22;34086;51.076;13.722;2023-04-04T03:32:06;1.80;99.90
48264;DHT22;34086;51.076;13.722;2023-04-04T03:33:06;1.80;99.90
48264;DHT22;34086;51.076;13.722;2023-04-04T03:34:07;1.80;99.90
48264;DHT22;34086;51.076;13.722;2023-04-04T03:35:09;1.80;99.90
48264;DHT22;34086;51.076;13.722;2023-04-04T03:36:10;1.80;99.90
48264;DHT22;34086;51.076;13.722;2023-04-04T03:37:12;1.80;99.90
48264;DHT22;34086;51.076;13.722;2023-04-04T03:38:13;1.80;99.90
48264;DHT22;34086;51.076;13.722;2023-04-04T03:39:14;1.80;99.90
48264;DHT22;34086;51.076;13.722;2023-04-04T03:40:14;1.80;99.90
48264;DHT22;34086;51.076;13.722;2023-04-04T03:41:16;1.80;99.90
48264;DHT22;34086;51.076;13.722;2023-04-04T03:42:16;1.80;99.90
48264;DHT22;34086;51.076;13.722;2023-04-04T03:43:17;1.80;99.90
48264;DHT22;34086;51.076;13.722;2023-04-04T03:44:17;1.80;99.90
48264;DHT22;34086;51.076;13.722;2023-04-04T03:45:18;1.80;99.90
48264;DHT22;34086;51.076;13.722;2023-04-04T03:46:19;1.80;99.90
48264;DHT22;34086;51.076;13.722;2023-04-04T03:47:20;1.80;99.90
48264;DHT22;34086;51.076;13.722;2023-04-04T03:48:21;1.80;99.90
48264;DHT22;34086;51.076;13.722;2023-04-04T03:49:22;1.70;99.90
48264;DHT22;34086;51.076;13.722;2023-04-04T03:50:22;1.80;99.90
48264;DHT22;34086;51.076;13.722;2023-04-04T03:51:26;1.80;99.90
48264;DHT22;34086;51.076;13.722;2023-04-04T03:52:27;1.80;99.90
48264;DHT22;34086;51.076;13.722;2023-04-04T03:53:27;1.80;99.90
48264;DHT22;34086;51.076;13.722;2023-04-04T03:54:28;1.80;99.90
48264;DHT22;34086;51.076;13.722;2023-04-04T03:55:29;1.80;99.90
48264;DHT22;34086;51.076;13.722;2023-04-04T03:56:32;1.80;99.90
48264;DHT22;34086;51.076;13.722;2023-04-04T03:57:38;1.80;99.90
48264;DHT22;34086;51.076;13.722;2023-04-04T03:58:43;1.80;99.90
48264;DHT22;34086;51.076;13.722;2023-04-04T03:59:49;1.70;99.90
48264;DHT22;34086;51.076;13.722;2023-04-04T04:00:50;1.70;99.90
48264;DHT22;34086;51.076;13.722;2023-04-04T04:01:51;1.70;99.90
48264;DHT22;34086;51.076;13.722;2023-04-04T04:02:51;1.70;99.90
48264;DHT22;34086;51.076;13.722;2023-04-04T04:03:52;1.70;99.90
48264;DHT22;34086;51.076;13.722;2023-04-04T04:04:53;1.70;99.90
48264;DHT22;34086;51.076;13.722;2023-04-04T04:05:54;1.70;99.90
48264;DHT22;34086;51.076;13.722;2023-04-04T04:06:54;1.70;99.90
48264;DHT22;34086;51.076;13.722;2023-04-04T04:07:55;1.70;99.90
48264;DHT22;34086;51.076;13.722;2023-04-04T04:08:55;1.60;99.90
48264;DHT22;34086;51.076;13.722;2023-04-04T04:09:56;1.70;99.90
48264;DHT22;34086;51.076;13.722;2023-04-04T04:11:03;1.70;99.90
48264;DHT22;34086;51.076;13.722;2023-04-04T04:12:04;1.70;99.90
48264;DHT22;34086;51.076;13.722;2023-04-04T04:13:04;1.70;99.90
48264;DHT22;34086;51.076;13.722;2023-04-04T04:14:06;1.70;99.90
48264;DHT22;34086;51.076;13.722;2023-04-04T04:15:07;1.70;99.90
48264;DHT22;34086;51.076;13.722;2023-04-04T04:16:08;1.70;99.90
48264;DHT22;34086;51.076;13.722;2023-04-04T04:17:09;1.70;99.90
48264;DHT22;34086;51.076;13.722;2023-04-04T04:18:10;1.70;99.90
48264;DHT22;34086;51.076;13.722;2023-04-04T04:19:11;1.70;99.90
48264;DHT22;34086;51.076;13.722;2023-04-04T04:20:15;1.70;99.90
48264;DHT22;34086;51.076;13.722;2023-04-04T04:21:20;1.70;99.90
48264;DHT22;34086;51.076;13.722;2023-04-04T04:22:21;1.70;99.90
48264;DHT22;34086;51.076;13.722;2023-04-04T04:23:22;1.70;99.90
48264;DHT22;34086;51.076;13.722;2023-04-04T04:24:24;1.70;99.90
48264;DHT22;34086;51.076;13.722;2023-04-04T04:25:25;1.70;99.90
48264;DHT22;34086;51.076;13.722;2023-04-04T04:26:46;1.70;99.90
48264;DHT22;34086;51.076;13.722;2023-04-04T04:27:49;1.70;99.90
48264;DHT22;34086;51.076;13.722;2023-04-04T04:28:51;1.80;99.90
48264;DHT22;34086;51.076;13.722;2023-04-04T04:29:59;1.70;99.90
48264;DHT22;34086;51.076;13.722;2023-04-04T04:31:08;1.70;99.90
48264;DHT22;34086;51.076;13.722;2023-04-04T04:32:15;1.70;99.90
48264;DHT22;34086;51.076;13.722;2023-04-04T04:33:27;1.80;99.90
48264;DHT22;34086;51.076;13.722;2023-04-04T04:34:33;1.80;99.90
48264;DHT22;34086;51.076;13.722;2023-04-04T04:35:38;1.80;99.90
48264;DHT22;34086;51.076;13.722;2023-04-04T04:36:39;1.80;99.90
48264;DHT22;34086;51.076;13.722;2023-04-04T04:37:58;1.80;99.90
48264;DHT22;34086;51.076;13.722;2023-04-04T04:39:00;1.80;99.90
48264;DHT22;34086;51.076;13.722;2023-04-04T04:40:03;1.80;99.90
48264;DHT22;34086;51.076;13.722;2023-04-04T04:41:11;1.80;99.90
48264;DHT22;34086;51.076;13.722;2023-04-04T04:42:17;1.80;99.90
48264;DHT22;34086;51.076;13.722;2023-04-04T04:43:24;1.80;99.90
48264;DHT22;34086;51.076;13.722;2023-04-04T04:44:25;1.80;99.90
48264;DHT22;34086;51.076;13.722;2023-04-04T04:45:28;1.80;99.90
48264;DHT22;34086;51.076;13.722;2023-04-04T04:46:39;1.80;99.90
48264;DHT22;34086;51.076;13.722;2023-04-04T04:47:46;1.80;99.90
48264;DHT22;34086;51.076;13.722;2023-04-04T04:48:50;1.80;99.90
48264;DHT22;34086;51.076;13.722;2023-04-04T04:49:56;1.80;99.90
48264;DHT22;34086;51.076;13.722;2023-04-04T04:51:07;1.80;99.90
48264;DHT22;34086;51.076;13.722;2023-04-04T04:52:14;1.80;99.90
48264;DHT22;34086;51.076;13.722;2023-04-04T04:53:17;1.80;99.90
48264;DHT22;34086;51.076;13.722;2023-04-04T04:54:20;1.80;99.90
48264;DHT22;34086;51.076;13.722;2023-04-04T04:55:26;1.80;99.90
48264;DHT22;34086;51.076;13.722;2023-04-04T04:56:40;1.90;99.90
48264;DHT22;34086;51.076;13.722;2023-04-04T04:57:46;1.90;99.90
48264;DHT22;34086;51.076;13.722;2023-04-04T04:58:52;1.90;99.90
48264;DHT22;34086;51.076;13.722;2023-04-04T04:59:59;1.90;99.90
48264;DHT22;34086;51.076;13.722;2023-04-04T05:01:01;1.90;99.90
48264;DHT22;34086;51.076;13.722;2023-04-04T05:02:09;1.90;99.90
48264;DHT22;34086;51.076;13.722;2023-04-04T05:03:15;1.90;99.90
48264;DHT22;34086;51.076;13.722;2023-04-04T05:04:21;1.90;99.90
48264;DHT22;34086;51.076;13.722;2023-04-04T05:05:36;2.00;99.90
48264;DHT22;34086;51.076;13.722;2023-04-04T05:06:41;2.00;99.90
48264;DHT22;34086;51.076;13.722;2023-04-04T05:07:44;2.00;99.90
48264;DHT22;34086;51.076;13.722;2023-04-04T05:08:45;2.00;99.90
48264;DHT22;34086;51.076;13.722;2023-04-04T05:09:55;2.00;99.90
48264;DHT22;34086;51.076;13.722;2023-04-04T05:10:56;2.00;99.90
48264;DHT22;34086;51.076;13.722;2023-04-04T05:12:01;1.90;99.90
48264;DHT22;34086;51.076;13.722;2023-04-04T05:13:11;2.00;99.90
48264;DHT22;34086;51.076;13.722;2023-04-04T05:14:16;2.00;99.90
48264;DHT22;34086;51.076;13.722;2023-04-04T05:15:23;2.00;99.90
48264;DHT22;34086;51.076;13.722;2023-04-04T05:16:31;1.90;99.90
48264;DHT22;34086;51.076;13.722;2023-04-04T05:17:34;2.00;99.90
48264;DHT22;34086;51.076;13.722;2023-04-04T05:18:38;1.90;99.90
48264;DHT22;34086;51.076;13.722;2023-04-04T05:19:43;2.00;99.90
48264;DHT22;34086;51.076;13.722;2023-04-04T05:20:53;2.10;99.90
48264;DHT22;34086;51.076;13.722;2023-04-04T05:21:54;2.10;99.90
48264;DHT22;34086;51.076;13.722;2023-04-04T05:23:09;2.10;99.90
48264;DHT22;34086;51.076;13.722;2023-04-04T05:24:13;2.20;99.90
48264;DHT22;34086;51.076;13.722;2023-04-04T05:25:16;2.20;99.90
48264;DHT22;34086;51.076;13.722;2023-04-04T05:26:19;2.20;99.90
48264;DHT22;34086;51.076;13.722;2023-04-04T05:27:22;2.30;99.90
48264;DHT22;34086;51.076;13.722;2023-04-04T05:28:30;2.30;99.90
48264;DHT22;34086;51.076;13.722;2023-04-04T05:29:34;2.30;99.90
48264;DHT22;34086;51.076;13.722;2023-04-04T05:30:36;2.30;99.90
48264;DHT22;34086;51.076;13.722;2023-04-04T05:31:59;2.30;99.90
48264;DHT22;34086;51.076;13.722;2023-04-04T05:33:01;2.30;99.90
48264;DHT22;34086;51.076;13.722;2023-04-04T05:34:03;2.30;99.90
48264;DHT22;34086;51.076;13.722;2023-04-04T05:35:07;2.40;99.90
48264;DHT22;34086;51.076;13.722;2023-04-04T05:36:09;2.40;99.90
48264;DHT22;34086;51.076;13.722;2023-04-04T05:37:16;2.40;99.90
48264;DHT22;34086;51.076;13.722;2023-04-04T05:38:21;2.50;99.90
48264;DHT22;34086;51.076;13.722;2023-04-04T05:39:26;2.50;99.90
48264;DHT22;34086;51.076;13.722;2023-04-04T05:40:34;2.50;99.90
48264;DHT22;34086;51.076;13.722;2023-04-04T05:41:41;2.50;99.90
48264;DHT22;34086;51.076;13.722;2023-04-04T05:42:54;2.50;99.90
48264;DHT22;34086;51.076;13.722;2023-04-04T05:43:57;2.50;99.90
48264;DHT22;34086;51.076;13.722;2023-04-04T05:44:58;2.50;99.90
48264;DHT22;34086;51.076;13.722;2023-04-04T05:46:03;2.40;99.90
48264;DHT22;34086;51.076;13.722;2023-04-04T05:47:10;2.50;99.90
48264;DHT22;34086;51.076;13.722;2023-04-04T05:48:14;2.50;99.90
48264;DHT22;34086;51.076;13.722;2023-04-04T05:49:22;2.50;99.90
48264;DHT22;34086;51.076;13.722;2023-04-04T05:50:29;2.50;99.90
48264;DHT22;34086;51.076;13.722;2023-04-04T05:51:35;2.40;99.90
48264;DHT22;34086;51.076;13.722;2023-04-04T05:52:45;2.50;99.90
48264;DHT22;34086;51.076;13.722;2023-04-04T05:53:47;2.50;99.90
48264;DHT22;34086;51.076;13.722;2023-04-04T05:54:52;2.50;99.90
48264;DHT22;34086;51.076;13.722;2023-04-04T05:56:00;2.50;99.90
48264;DHT22;34086;51.076;13.722;2023-04-04T05:57:04;2.50;99.90
48264;DHT22;34086;51.076;13.722;2023-04-04T05:58:14;2.60;99.90
48264;DHT22;34086;51.076;13.722;2023-04-04T05:59:21;2.70;99.90
48264;DHT22;34086;51.076;13.722;2023-04-04T06:00:32;2.70;99.90
48264;DHT22;34086;51.076;13.722;2023-04-04T06:01:39;2.70;99.90
48264;DHT22;34086;51.076;13.722;2023-04-04T06:02:45;2.60;99.90
48264;DHT22;34086;51.076;13.722;2023-04-04T06:03:50;2.60;99.90
48264;DHT22;34086;51.076;13.722;2023-04-04T06:04:57;2.50;99.90
48264;DHT22;34086;51.076;13.722;2023-04-04T06:06:06;2.50;99.90
48264;DHT22;34086;51.076;13.722;2023-04-04T06:07:07;2.50;99.90
48264;DHT22;34086;51.076;13.722;2023-04-04T06:08:08;2.60;99.90
48264;DHT22;34086;51.076;13.722;2023-04-04T06:09:08;2.60;99.90
48264;DHT22;34086;51.076;13.722;2023-04-04T06:10:09;2.60;99.90
48264;DHT22;34086;51.076;13.722;2023-04-04T06:11:10;2.70;99.90
48264;DHT22;34086;51.076;13.722;2023-04-04T06:12:11;2.70;99.90
48264;DHT22;34086;51.076;13.722;2023-04-04T06:13:12;2.70;99.90
48264;DHT22;34086;51.076;13.722;2023-04-04T06:14:15;2.70;99.90
48264;DHT22;34086;51.076;13.722;2023-04-04T06:15:17;2.80;99.90
48264;DHT22;34086;51.076;13.722;2023-04-04T06:16:17;2.80;99.90
48264;DHT22;34086;51.076;13.722;2023-04-04T06:17:18;2.80;99.90
48264;DHT22;34086;51.076;13.722;2023-04-04T06:18:19;2.70;99.90
48264;DHT22;34086;51.076;13.722;2023-04-04T06:19:19;2.60;99.90
48264;DHT22;34086;51.076;13.722;2023-04-04T06:20:20;2.60;99.90
48264;DHT22;34086;51.076;13.722;2023-04-04T06:21:24;2.50;99.90
48264;DHT22;34086;51.076;13.722;2023-04-04T06:22:26;2.50;99.90
48264;DHT22;34086;51.076;13.722;2023-04-04T06:23:28;2.50;99.90
48264;DHT22;34086;51.076;13.722;2023-04-04T06:24:28;2.50;99.90
48264;DHT22;34086;51.076;13.722;2023-04-04T06:25:30;2.60;99.90
48264;DHT22;34086;51.076;13.722;2023-04-04T06:26:32;2.60;99.90
48264;DHT22;34086;51.076;13.722;2023-04-04T06:27:35;2.60;99.90
48264;DHT22;34086;51.076;13.722;2023-04-04T06:28:46;2.60;99.90
48264;DHT22;34086;51.076;13.722;2023-04-04T06:29:49;2.60;99.90
48264;DHT22;34086;51.076;13.722;2023-04-04T06:30:53;2.60;99.90
48264;DHT22;34086;51.076;13.722;2023-04-04T06:32:01;2.60;99.90
48264;DHT22;34086;51.076;13.722;2023-04-04T06:33:10;2.70;99.90
48264;DHT22;34086;51.076;13.722;2023-04-04T06:34:15;2.60;99.90
48264;DHT22;34086;51.076;13.722;2023-04-04T06:35:28;2.60;99.90
48264;DHT22;34086;51.076;13.722;2023-04-04T06:36:32;2.60;99.90
48264;DHT22;34086;51.076;13.722;2023-04-04T06:37:36;2.60;99.90
48264;DHT22;34086;51.076;13.722;2023-04-04T06:38:45;2.60;99.90